sensor_id;sensor_type;location;lat;lon;timestamp;P1;durP1;ratioP1;P2;durP2;ratioP2
63201;SDS011;49296;48.188;11.566;2023-01-25T00:00:28;33.75;;;13.35;;
63201;SDS011;49296;48.188;11.566;2023-01-25T00:02:55;30.63;;;13.15;;
63201;SDS011;49296;48.188;11.566;2023-01-25T00:05:22;35.45;;;13.25;;
63201;SDS011;49296;48.188;11.566;2023-01-25T00:07:49;32.78;;;12.93;;
63201;SDS011;49296;48.188;11.566;2023-01-25T00:10:16;29.85;;;12.13;;
63201;SDS011;49296;48.188;11.566;2023-01-25T00:12:43;29.60;;;13.00;;
63201;SDS011;49296;48.188;11.566;2023-01-25T00:15:13;29.73;;;11.75;;
63201;SDS011;49296;48.188;11.566;2023-01-25T00:17:41;29.70;;;13.10;;
63201;SDS011;49296;48.188;11.566;2023-01-25T00:20:09;31.55;;;12.77;;
63201;SDS011;49296;48.188;11.566;2023-01-25T00:22:36;30.73;;;12.38;;
63201;SDS011;49296;48.188;11.566;2023-01-25T00:25:03;32.15;;;13.68;;
63201;SDS011;49296;48.188;11.566;2023-01-25T00:27:30;31.17;;;13.23;;
63201;SDS011;49296;48.188;11.566;2023-01-25T00:29:57;32.10;;;13.20;;
63201;SDS011;49296;48.188;11.566;2023-01-25T00:32:29;29.90;;;12.65;;
63201;SDS011;49296;48.188;11.566;2023-01-25T00:35:04;36.72;;;13.48;;
63201;SDS011;49296;48.188;11.566;2023-01-25T00:37:35;29.80;;;12.52;;
63201;SDS011;49296;48.188;11.566;2023-01-25T00:40:04;32.80;;;12.50;;
63201;SDS011;49296;48.188;11.566;2023-01-25T00:42:31;33.38;;;12.40;;
63201;SDS011;49296;48.188;11.566;2023-01-25T00:44:58;29.17;;;12.40;;
63201;SDS011;49296;48.188;11.566;2023-01-25T00:47:25;35.38;;;13.32;;
63201;SDS011;49296;48.188;11.566;2023-01-25T00:49:52;25.27;;;11.55;;
63201;SDS011;49296;48.188;11.566;2023-01-25T00:52:20;28.25;;;11.93;;
63201;SDS011;49296;48.188;11.566;2023-01-25T00:54:47;28.50;;;11.07;;
63201;SDS011;49296;48.188;11.566;2023-01-25T00:57:14;33.28;;;13.35;;
63201;SDS011;49296;48.188;11.566;2023-01-25T00:59:41;28.05;;;12.10;;
63201;SDS011;49296;48.188;11.566;2023-01-25T01:02:10;26.45;;;11.20;;
63201;SDS011;49296;48.188;11.566;2023-01-25T01:04:37;28.77;;;12.23;;
63201;SDS011;49296;48.188;11.566;2023-01-25T01:07:04;32.15;;;13.02;;
63201;SDS011;49296;48.188;11.566;2023-01-25T01:09:32;30.15;;;11.13;;
63201;SDS011;49296;48.188;11.566;2023-01-25T01:11:59;31.60;;;12.80;;
63201;SDS011;49296;48.188;11.566;2023-01-25T01:14:26;29.15;;;12.10;;
63201;SDS011;49296;48.188;11.566;2023-01-25T01:16:53;30.90;;;12.30;;
63201;SDS011;49296;48.188;11.566;2023-01-25T01:19:20;31.52;;;12.55;;
63201;SDS011;49296;48.188;11.566;2023-01-25T01:21:47;27.20;;;11.80;;
63201;SDS011;49296;48.188;11.566;2023-01-25T01:24:15;33.50;;;12.27;;
63201;SDS011;49296;48.188;11.566;2023-01-25T01:26:45;31.48;;;12.60;;
63201;SDS011;49296;48.188;11.566;2023-01-25T01:29:12;29.23;;;13.32;;
63201;SDS011;49296;48.188;11.566;2023-01-25T01:31:39;32.35;;;11.82;;
63201;SDS011;49296;48.188;11.566;2023-01-25T01:34:05;31.70;;;12.85;;
63201;SDS011;49296;48.188;11.566;2023-01-25T01:36:32;31.48;;;12.38;;
63201;SDS011;49296;48.188;11.566;2023-01-25T01:38:59;31.65;;;13.05;;
63201;SDS011;49296;48.188;11.566;2023-01-25T01:41:26;30.58;;;12.40;;
63201;SDS011;49296;48.188;11.566;2023-01-25T01:43:54;28.98;;;12.98;;
63201;SDS011;49296;48.188;11.566;2023-01-25T01:46:22;33.42;;;12.75;;
63201;SDS011;49296;48.188;11.566;2023-01-25T01:48:53;30.08;;;12.88;;
63201;SDS011;49296;48.188;11.566;2023-01-25T01:51:25;31.10;;;12.48;;
63201;SDS011;49296;48.188;11.566;2023-01-25T01:54:00;30.55;;;12.15;;
63201;SDS011;49296;48.188;11.566;2023-01-25T01:56:31;36.42;;;13.90;;
63201;SDS011;49296;48.188;11.566;2023-01-25T01:59:04;33.65;;;13.77;;
63201;SDS011;49296;48.188;11.566;2023-01-25T02:01:32;33.38;;;12.95;;
63201;SDS011;49296;48.188;11.566;2023-01-25T02:03:59;34.90;;;12.23;;
63201;SDS011;49296;48.188;11.566;2023-01-25T02:06:28;28.98;;;11.90;;
63201;SDS011;49296;48.188;11.566;2023-01-25T02:08:59;29.45;;;12.50;;
63201;SDS011;49296;48.188;11.566;2023-01-25T02:11:27;29.83;;;12.95;;
63201;SDS011;49296;48.188;11.566;2023-01-25T02:13:55;33.85;;;12.48;;
63201;SDS011;49296;48.188;11.566;2023-01-25T02:16:26;28.73;;;11.00;;
63201;SDS011;49296;48.188;11.566;2023-01-25T02:18:54;29.25;;;11.98;;
63201;SDS011;49296;48.188;11.566;2023-01-25T02:21:23;28.88;;;11.85;;
63201;SDS011;49296;48.188;11.566;2023-01-25T02:23:52;26.58;;;11.63;;
63201;SDS011;49296;48.188;11.566;2023-01-25T02:26:25;26.75;;;10.90;;
63201;SDS011;49296;48.188;11.566;2023-01-25T02:28:53;29.42;;;11.65;;
63201;SDS011;49296;48.188;11.566;2023-01-25T02:31:24;25.88;;;11.15;;
63201;SDS011;49296;48.188;11.566;2023-01-25T02:33:51;28.60;;;11.40;;
63201;SDS011;49296;48.188;11.566;2023-01-25T02:36:19;27.77;;;12.02;;
63201;SDS011;49296;48.188;11.566;2023-01-25T02:38:51;33.35;;;11.63;;
63201;SDS011;49296;48.188;11.566;2023-01-25T02:41:27;29.70;;;12.32;;
63201;SDS011;49296;48.188;11.566;2023-01-25T02:43:58;32.90;;;13.32;;
63201;SDS011;49296;48.188;11.566;2023-01-25T02:46:26;30.52;;;12.07;;
63201;SDS011;49296;48.188;11.566;2023-01-25T02:48:55;30.02;;;11.32;;
63201;SDS011;49296;48.188;11.566;2023-01-25T02:51:23;30.00;;;13.13;;
63201;SDS011;49296;48.188;11.566;2023-01-25T02:53:51;31.50;;;12.13;;
63201;SDS011;49296;48.188;11.566;2023-01-25T02:56:19;35.80;;;13.45;;
63201;SDS011;49296;48.188;11.566;2023-01-25T02:58:47;27.25;;;10.82;;
63201;SDS011;49296;48.188;11.566;2023-01-25T03:01:14;31.27;;;12.63;;
63201;SDS011;49296;48.188;11.566;2023-01-25T03:03:41;31.73;;;11.82;;
63201;SDS011;49296;48.188;11.566;2023-01-25T03:06:09;30.50;;;12.57;;
63201;SDS011;49296;48.188;11.566;2023-01-25T03:08:36;29.33;;;10.95;;
63201;SDS011;49296;48.188;11.566;2023-01-25T03:11:03;27.58;;;10.90;;
63201;SDS011;49296;48.188;11.566;2023-01-25T03:13:31;28.48;;;12.43;;
63201;SDS011;49296;48.188;11.566;2023-01-25T03:16:01;23.95;;;10.85;;
63201;SDS011;49296;48.188;11.566;2023-01-25T03:18:28;30.95;;;12.52;;
63201;SDS011;49296;48.188;11.566;2023-01-25T03:20:55;33.38;;;12.10;;
63201;SDS011;49296;48.188;11.566;2023-01-25T03:23:22;29.95;;;13.30;;
63201;SDS011;49296;48.188;11.566;2023-01-25T03:25:49;31.08;;;12.27;;
63201;SDS011;49296;48.188;11.566;2023-01-25T03:28:17;36.20;;;12.73;;
63201;SDS011;49296;48.188;11.566;2023-01-25T03:30:43;34.20;;;13.35;;
63201;SDS011;49296;48.188;11.566;2023-01-25T03:33:15;32.17;;;13.52;;
63201;SDS011;49296;48.188;11.566;2023-01-25T03:35:42;31.02;;;13.00;;
63201;SDS011;49296;48.188;11.566;2023-01-25T03:38:09;35.80;;;13.65;;
63201;SDS011;49296;48.188;11.566;2023-01-25T03:40:36;33.45;;;13.10;;
63201;SDS011;49296;48.188;11.566;2023-01-25T03:43:02;32.75;;;13.05;;
63201;SDS011;49296;48.188;11.566;2023-01-25T03:45:29;29.88;;;11.63;;
63201;SDS011;49296;48.188;11.566;2023-01-25T03:47:56;34.97;;;13.73;;
63201;SDS011;49296;48.188;11.566;2023-01-25T03:50:24;30.35;;;12.88;;
63201;SDS011;49296;48.188;11.566;2023-01-25T03:52:53;28.83;;;12.07;;
63201;SDS011;49296;48.188;11.566;2023-01-25T03:55:44;32.42;;;12.15;;
63201;SDS011;49296;48.188;11.566;2023-01-25T03:58:10;29.92;;;10.88;;
63201;SDS011;49296;48.188;11.566;2023-01-25T04:00:37;29.75;;;12.57;;
63201;SDS011;49296;48.188;11.566;2023-01-25T04:03:04;29.05;;;11.38;;
63201;SDS011;49296;48.188;11.566;2023-01-25T04:05:32;30.58;;;12.07;;
63201;SDS011;49296;48.188;11.566;2023-01-25T04:07:59;29.67;;;11.75;;
63201;SDS011;49296;48.188;11.566;2023-01-25T04:10:26;33.08;;;12.60;;
63201;SDS011;49296;48.188;11.566;2023-01-25T04:12:53;30.80;;;11.05;;
63201;SDS011;49296;48.188;11.566;2023-01-25T04:15:20;30.88;;;13.55;;
63201;SDS011;49296;48.188;11.566;2023-01-25T04:17:47;36.78;;;14.27;;
63201;SDS011;49296;48.188;11.566;2023-01-25T04:20:14;35.17;;;13.23;;
63201;SDS011;49296;48.188;11.566;2023-01-25T04:22:42;35.05;;;13.20;;
63201;SDS011;49296;48.188;11.566;2023-01-25T04:25:09;29.52;;;11.98;;
63201;SDS011;49296;48.188;11.566;2023-01-25T04:27:36;32.47;;;13.30;;
63201;SDS011;49296;48.188;11.566;2023-01-25T04:30:03;34.33;;;13.80;;
63201;SDS011;49296;48.188;11.566;2023-01-25T04:32:33;34.53;;;13.35;;
63201;SDS011;49296;48.188;11.566;2023-01-25T04:35:00;35.50;;;12.98;;
63201;SDS011;49296;48.188;11.566;2023-01-25T04:37:27;31.77;;;13.65;;
63201;SDS011;49296;48.188;11.566;2023-01-25T04:39:55;33.95;;;12.85;;
63201;SDS011;49296;48.188;11.566;2023-01-25T04:42:22;35.97;;;11.88;;
63201;SDS011;49296;48.188;11.566;2023-01-25T04:44:49;27.98;;;10.93;;
63201;SDS011;49296;48.188;11.566;2023-01-25T04:47:16;30.70;;;11.70;;
63201;SDS011;49296;48.188;11.566;2023-01-25T04:49:43;31.70;;;12.38;;
63201;SDS011;49296;48.188;11.566;2023-01-25T04:52:10;29.05;;;11.50;;
63201;SDS011;49296;48.188;11.566;2023-01-25T04:54:37;25.90;;;10.85;;
63201;SDS011;49296;48.188;11.566;2023-01-25T04:57:05;28.42;;;11.90;;
63201;SDS011;49296;48.188;11.566;2023-01-25T04:59:32;31.45;;;12.13;;
63201;SDS011;49296;48.188;11.566;2023-01-25T05:01:59;31.08;;;12.35;;
63201;SDS011;49296;48.188;11.566;2023-01-25T05:04:26;39.10;;;12.52;;
63201;SDS011;49296;48.188;11.566;2023-01-25T05:06:53;38.20;;;13.18;;
63201;SDS011;49296;48.188;11.566;2023-01-25T05:09:19;33.03;;;11.52;;
63201;SDS011;49296;48.188;11.566;2023-01-25T05:11:46;32.22;;;13.38;;
63201;SDS011;49296;48.188;11.566;2023-01-25T05:14:15;34.22;;;12.13;;
63201;SDS011;49296;48.188;11.566;2023-01-25T05:16:41;29.42;;;12.15;;
63201;SDS011;49296;48.188;11.566;2023-01-25T05:19:08;27.02;;;10.48;;
63201;SDS011;49296;48.188;11.566;2023-01-25T05:21:35;25.77;;;10.32;;
63201;SDS011;49296;48.188;11.566;2023-01-25T05:24:19;30.80;;;10.75;;
63201;SDS011;49296;48.188;11.566;2023-01-25T05:26:46;28.63;;;11.60;;
63201;SDS011;49296;48.188;11.566;2023-01-25T05:29:26;27.80;;;10.88;;
63201;SDS011;49296;48.188;11.566;2023-01-25T05:31:54;24.67;;;9.90;;
63201;SDS011;49296;48.188;11.566;2023-01-25T05:34:21;24.48;;;10.23;;
63201;SDS011;49296;48.188;11.566;2023-01-25T05:36:48;24.20;;;10.02;;
63201;SDS011;49296;48.188;11.566;2023-01-25T05:39:15;30.17;;;10.52;;
63201;SDS011;49296;48.188;11.566;2023-01-25T05:41:42;26.60;;;10.77;;
63201;SDS011;49296;48.188;11.566;2023-01-25T05:44:09;25.02;;;9.02;;
63201;SDS011;49296;48.188;11.566;2023-01-25T05:46:38;26.98;;;10.25;;
63201;SDS011;49296;48.188;11.566;2023-01-25T05:49:05;28.63;;;10.07;;
63201;SDS011;49296;48.188;11.566;2023-01-25T05:51:32;28.60;;;10.13;;
63201;SDS011;49296;48.188;11.566;2023-01-25T05:53:59;28.83;;;11.25;;
63201;SDS011;49296;48.188;11.566;2023-01-25T05:56:26;36.58;;;11.30;;
63201;SDS011;49296;48.188;11.566;2023-01-25T05:58:53;26.00;;;9.77;;
63201;SDS011;49296;48.188;11.566;2023-01-25T06:01:21;25.13;;;9.40;;
63201;SDS011;49296;48.188;11.566;2023-01-25T06:03:50;26.33;;;10.38;;
63201;SDS011;49296;48.188;11.566;2023-01-25T06:06:17;30.27;;;10.00;;
63201;SDS011;49296;48.188;11.566;2023-01-25T06:08:45;23.33;;;8.88;;
63201;SDS011;49296;48.188;11.566;2023-01-25T06:11:13;30.23;;;9.95;;
63201;SDS011;49296;48.188;11.566;2023-01-25T06:13:41;25.40;;;9.93;;
63201;SDS011;49296;48.188;11.566;2023-01-25T06:16:08;26.50;;;8.65;;
63201;SDS011;49296;48.188;11.566;2023-01-25T06:18:36;23.70;;;8.98;;
63201;SDS011;49296;48.188;11.566;2023-01-25T06:21:04;20.77;;;8.13;;
63201;SDS011;49296;48.188;11.566;2023-01-25T06:23:31;23.60;;;8.30;;
63201;SDS011;49296;48.188;11.566;2023-01-25T06:25:58;25.70;;;9.55;;
63201;SDS011;49296;48.188;11.566;2023-01-25T06:28:28;25.13;;;8.73;;
63201;SDS011;49296;48.188;11.566;2023-01-25T06:30:55;28.27;;;8.95;;
63201;SDS011;49296;48.188;11.566;2023-01-25T06:33:27;25.67;;;9.73;;
63201;SDS011;49296;48.188;11.566;2023-01-25T06:35:57;22.52;;;8.82;;
63201;SDS011;49296;48.188;11.566;2023-01-25T06:38:26;26.23;;;9.77;;
63201;SDS011;49296;48.188;11.566;2023-01-25T06:40:57;26.17;;;10.02;;
63201;SDS011;49296;48.188;11.566;2023-01-25T06:43:25;23.23;;;8.70;;
63201;SDS011;49296;48.188;11.566;2023-01-25T06:45:56;26.48;;;8.65;;
63201;SDS011;49296;48.188;11.566;2023-01-25T06:48:23;25.35;;;9.02;;
63201;SDS011;49296;48.188;11.566;2023-01-25T06:50:54;23.75;;;8.65;;
63201;SDS011;49296;48.188;11.566;2023-01-25T06:55:56;24.63;;;7.53;;
63201;SDS011;49296;48.188;11.566;2023-01-25T06:58:24;20.02;;;8.57;;
63201;SDS011;49296;48.188;11.566;2023-01-25T07:00:51;23.25;;;9.07;;
63201;SDS011;49296;48.188;11.566;2023-01-25T07:03:18;23.73;;;8.82;;
63201;SDS011;49296;48.188;11.566;2023-01-25T07:05:45;22.45;;;9.20;;
63201;SDS011;49296;48.188;11.566;2023-01-25T07:08:13;21.70;;;8.23;;
63201;SDS011;49296;48.188;11.566;2023-01-25T07:10:41;23.45;;;8.32;;
63201;SDS011;49296;48.188;11.566;2023-01-25T07:13:09;22.55;;;8.48;;
63201;SDS011;49296;48.188;11.566;2023-01-25T07:15:36;24.65;;;9.43;;
63201;SDS011;49296;48.188;11.566;2023-01-25T07:18:02;22.77;;;8.90;;
63201;SDS011;49296;48.188;11.566;2023-01-25T07:20:29;20.67;;;8.05;;
63201;SDS011;49296;48.188;11.566;2023-01-25T07:22:57;24.42;;;8.85;;
63201;SDS011;49296;48.188;11.566;2023-01-25T07:25:24;21.92;;;8.30;;
63201;SDS011;49296;48.188;11.566;2023-01-25T07:27:51;22.77;;;9.23;;
63201;SDS011;49296;48.188;11.566;2023-01-25T07:30:19;16.95;;;7.90;;
63201;SDS011;49296;48.188;11.566;2023-01-25T07:32:46;20.17;;;8.18;;
63201;SDS011;49296;48.188;11.566;2023-01-25T07:35:13;19.33;;;8.30;;
63201;SDS011;49296;48.188;11.566;2023-01-25T07:37:40;20.45;;;8.15;;
63201;SDS011;49296;48.188;11.566;2023-01-25T07:40:07;19.60;;;8.18;;
63201;SDS011;49296;48.188;11.566;2023-01-25T07:42:35;22.23;;;8.55;;
63201;SDS011;49296;48.188;11.566;2023-01-25T07:45:02;20.48;;;8.40;;
63201;SDS011;49296;48.188;11.566;2023-01-25T07:47:31;19.90;;;8.10;;
63201;SDS011;49296;48.188;11.566;2023-01-25T07:49:58;19.55;;;7.40;;
63201;SDS011;49296;48.188;11.566;2023-01-25T07:52:25;20.02;;;8.10;;
63201;SDS011;49296;48.188;11.566;2023-01-25T07:54:52;19.55;;;9.45;;
63201;SDS011;49296;48.188;11.566;2023-01-25T07:57:19;24.73;;;8.05;;
63201;SDS011;49296;48.188;11.566;2023-01-25T07:59:45;22.15;;;9.27;;
63201;SDS011;49296;48.188;11.566;2023-01-25T08:02:13;21.33;;;8.20;;
63201;SDS011;49296;48.188;11.566;2023-01-25T08:04:42;18.90;;;8.45;;
63201;SDS011;49296;48.188;11.566;2023-01-25T08:07:09;20.17;;;7.40;;
63201;SDS011;49296;48.188;11.566;2023-01-25T08:09:37;22.58;;;8.18;;
63201;SDS011;49296;48.188;11.566;2023-01-25T08:12:04;18.75;;;7.40;;
63201;SDS011;49296;48.188;11.566;2023-01-25T08:14:32;20.40;;;8.00;;
63201;SDS011;49296;48.188;11.566;2023-01-25T08:16:59;21.75;;;8.93;;
63201;SDS011;49296;48.188;11.566;2023-01-25T08:19:25;27.63;;;9.40;;
63201;SDS011;49296;48.188;11.566;2023-01-25T08:21:54;20.00;;;8.82;;
63201;SDS011;49296;48.188;11.566;2023-01-25T08:24:21;23.35;;;8.70;;
63201;SDS011;49296;48.188;11.566;2023-01-25T08:26:48;19.45;;;8.13;;
63201;SDS011;49296;48.188;11.566;2023-01-25T08:29:15;21.67;;;9.15;;
63201;SDS011;49296;48.188;11.566;2023-01-25T08:31:42;21.40;;;8.38;;
63201;SDS011;49296;48.188;11.566;2023-01-25T08:34:10;25.20;;;9.77;;
63201;SDS011;49296;48.188;11.566;2023-01-25T08:36:39;21.75;;;9.05;;
63201;SDS011;49296;48.188;11.566;2023-01-25T08:39:07;23.80;;;8.73;;
63201;SDS011;49296;48.188;11.566;2023-01-25T08:41:36;24.13;;;8.38;;
63201;SDS011;49296;48.188;11.566;2023-01-25T08:44:04;28.27;;;10.57;;
63201;SDS011;49296;48.188;11.566;2023-01-25T08:46:31;23.30;;;8.52;;
63201;SDS011;49296;48.188;11.566;2023-01-25T08:48:59;19.35;;;8.38;;
63201;SDS011;49296;48.188;11.566;2023-01-25T08:51:27;23.95;;;9.45;;
63201;SDS011;49296;48.188;11.566;2023-01-25T08:53:55;23.45;;;10.57;;
63201;SDS011;49296;48.188;11.566;2023-01-25T08:56:24;22.33;;;8.32;;
63201;SDS011;49296;48.188;11.566;2023-01-25T08:58:50;23.92;;;8.82;;
63201;SDS011;49296;48.188;11.566;2023-01-25T09:01:18;21.80;;;9.45;;
63201;SDS011;49296;48.188;11.566;2023-01-25T09:03:47;22.60;;;8.45;;
63201;SDS011;49296;48.188;11.566;2023-01-25T09:06:15;20.48;;;8.77;;
63201;SDS011;49296;48.188;11.566;2023-01-25T09:08:44;21.90;;;8.98;;
63201;SDS011;49296;48.188;11.566;2023-01-25T09:11:11;23.63;;;9.45;;
63201;SDS011;49296;48.188;11.566;2023-01-25T09:13:41;20.67;;;8.10;;
63201;SDS011;49296;48.188;11.566;2023-01-25T09:16:09;18.42;;;8.50;;
63201;SDS011;49296;48.188;11.566;2023-01-25T09:18:37;19.25;;;9.05;;
63201;SDS011;49296;48.188;11.566;2023-01-25T09:21:05;21.17;;;8.90;;
63201;SDS011;49296;48.188;11.566;2023-01-25T09:23:33;21.98;;;8.95;;
63201;SDS011;49296;48.188;11.566;2023-01-25T09:26:00;21.52;;;9.00;;
63201;SDS011;49296;48.188;11.566;2023-01-25T09:28:28;18.67;;;8.55;;
63201;SDS011;49296;48.188;11.566;2023-01-25T09:30:58;23.60;;;9.05;;
63201;SDS011;49296;48.188;11.566;2023-01-25T09:33:26;22.80;;;9.90;;
63201;SDS011;49296;48.188;11.566;2023-01-25T09:35:54;21.05;;;10.10;;
63201;SDS011;49296;48.188;11.566;2023-01-25T09:38:21;23.00;;;10.40;;
63201;SDS011;49296;48.188;11.566;2023-01-25T09:40:52;22.40;;;9.18;;
63201;SDS011;49296;48.188;11.566;2023-01-25T09:43:34;25.30;;;10.27;;
63201;SDS011;49296;48.188;11.566;2023-01-25T09:46:19;22.05;;;9.30;;
63201;SDS011;49296;48.188;11.566;2023-01-25T09:48:54;23.60;;;9.35;;
63201;SDS011;49296;48.188;11.566;2023-01-25T09:51:32;21.42;;;8.43;;
63201;SDS011;49296;48.188;11.566;2023-01-25T09:54:14;24.00;;;9.68;;
63201;SDS011;49296;48.188;11.566;2023-01-25T09:56:43;22.13;;;8.88;;
63201;SDS011;49296;48.188;11.566;2023-01-25T09:59:16;22.55;;;9.50;;
63201;SDS011;49296;48.188;11.566;2023-01-25T10:01:50;20.00;;;9.82;;
63201;SDS011;49296;48.188;11.566;2023-01-25T10:04:21;21.63;;;9.23;;
63201;SDS011;49296;48.188;11.566;2023-01-25T10:06:53;23.30;;;9.23;;
63201;SDS011;49296;48.188;11.566;2023-01-25T10:09:30;23.80;;;10.20;;
63201;SDS011;49296;48.188;11.566;2023-01-25T10:12:04;27.52;;;10.68;;
63201;SDS011;49296;48.188;11.566;2023-01-25T10:14:37;25.73;;;9.73;;
63201;SDS011;49296;48.188;11.566;2023-01-25T10:17:07;25.10;;;10.40;;
63201;SDS011;49296;48.188;11.566;2023-01-25T10:19:43;27.23;;;10.68;;
63201;SDS011;49296;48.188;11.566;2023-01-25T10:22:21;28.60;;;10.52;;
63201;SDS011;49296;48.188;11.566;2023-01-25T10:24:58;29.30;;;10.88;;
63201;SDS011;49296;48.188;11.566;2023-01-25T10:27:42;26.40;;;10.00;;
63201;SDS011;49296;48.188;11.566;2023-01-25T10:30:24;24.65;;;9.45;;
63201;SDS011;49296;48.188;11.566;2023-01-25T10:32:55;30.38;;;11.35;;
63201;SDS011;49296;48.188;11.566;2023-01-25T10:35:26;30.05;;;10.55;;
63201;SDS011;49296;48.188;11.566;2023-01-25T10:37:57;29.02;;;10.77;;
63201;SDS011;49296;48.188;11.566;2023-01-25T10:40:27;27.00;;;12.05;;
63201;SDS011;49296;48.188;11.566;2023-01-25T10:43:01;34.00;;;12.40;;
63201;SDS011;49296;48.188;11.566;2023-01-25T10:45:31;32.28;;;11.52;;
63201;SDS011;49296;48.188;11.566;2023-01-25T10:48:00;30.83;;;11.40;;
63201;SDS011;49296;48.188;11.566;2023-01-25T10:50:43;28.88;;;10.73;;
63201;SDS011;49296;48.188;11.566;2023-01-25T10:53:25;34.58;;;12.25;;
63201;SDS011;49296;48.188;11.566;2023-01-25T10:55:58;31.85;;;11.38;;
63201;SDS011;49296;48.188;11.566;2023-01-25T10:58:30;32.93;;;12.17;;
63201;SDS011;49296;48.188;11.566;2023-01-25T11:00:59;39.20;;;12.05;;
63201;SDS011;49296;48.188;11.566;2023-01-25T11:03:33;31.23;;;10.93;;
63201;SDS011;49296;48.188;11.566;2023-01-25T11:06:02;30.88;;;11.55;;
63201;SDS011;49296;48.188;11.566;2023-01-25T11:08:33;32.55;;;11.38;;
63201;SDS011;49296;48.188;11.566;2023-01-25T11:11:21;30.67;;;10.93;;
63201;SDS011;49296;48.188;11.566;2023-01-25T11:13:51;29.08;;;10.45;;
63201;SDS011;49296;48.188;11.566;2023-01-25T11:16:24;33.60;;;11.75;;
63201;SDS011;49296;48.188;11.566;2023-01-25T11:18:57;33.28;;;11.13;;
63201;SDS011;49296;48.188;11.566;2023-01-25T11:21:27;29.73;;;10.23;;
63201;SDS011;49296;48.188;11.566;2023-01-25T11:26:51;25.33;;;9.57;;
63201;SDS011;49296;48.188;11.566;2023-01-25T11:29:38;27.55;;;10.27;;
63201;SDS011;49296;48.188;11.566;2023-01-25T11:32:11;28.67;;;10.80;;
63201;SDS011;49296;48.188;11.566;2023-01-25T11:34:45;27.00;;;11.18;;
63201;SDS011;49296;48.188;11.566;2023-01-25T11:37:22;28.77;;;10.63;;
63201;SDS011;49296;48.188;11.566;2023-01-25T11:40:13;32.97;;;11.70;;
63201;SDS011;49296;48.188;11.566;2023-01-25T11:42:51;28.55;;;11.18;;
63201;SDS011;49296;48.188;11.566;2023-01-25T11:48:21;35.50;;;11.50;;
63201;SDS011;49296;48.188;11.566;2023-01-25T11:51:00;29.48;;;12.05;;
63201;SDS011;49296;48.188;11.566;2023-01-25T11:53:34;30.90;;;11.77;;
63201;SDS011;49296;48.188;11.566;2023-01-25T11:56:12;28.88;;;11.27;;
63201;SDS011;49296;48.188;11.566;2023-01-25T11:58:50;36.90;;;13.27;;
63201;SDS011;49296;48.188;11.566;2023-01-25T12:01:35;35.97;;;13.30;;
63201;SDS011;49296;48.188;11.566;2023-01-25T12:04:15;33.78;;;12.73;;
63201;SDS011;49296;48.188;11.566;2023-01-25T12:07:03;36.28;;;12.75;;
63201;SDS011;49296;48.188;11.566;2023-01-25T12:09:48;32.90;;;12.45;;
63201;SDS011;49296;48.188;11.566;2023-01-25T12:12:28;34.85;;;12.65;;
63201;SDS011;49296;48.188;11.566;2023-01-25T12:15:13;31.90;;;12.27;;
63201;SDS011;49296;48.188;11.566;2023-01-25T12:17:56;40.33;;;13.77;;
63201;SDS011;49296;48.188;11.566;2023-01-25T12:20:49;30.13;;;12.70;;
63201;SDS011;49296;48.188;11.566;2023-01-25T12:23:40;28.48;;;10.60;;
63201;SDS011;49296;48.188;11.566;2023-01-25T12:26:21;26.77;;;10.63;;
63201;SDS011;49296;48.188;11.566;2023-01-25T12:28:54;34.42;;;12.68;;
63201;SDS011;49296;48.188;11.566;2023-01-25T12:31:29;31.58;;;11.13;;
63201;SDS011;49296;48.188;11.566;2023-01-25T12:34:03;40.47;;;14.60;;
63201;SDS011;49296;48.188;11.566;2023-01-25T12:36:37;47.42;;;14.73;;
63201;SDS011;49296;48.188;11.566;2023-01-25T12:39:11;41.88;;;16.23;;
63201;SDS011;49296;48.188;11.566;2023-01-25T12:41:40;46.30;;;16.23;;
63201;SDS011;49296;48.188;11.566;2023-01-25T12:44:15;49.08;;;16.70;;
63201;SDS011;49296;48.188;11.566;2023-01-25T12:46:49;47.25;;;17.30;;
63201;SDS011;49296;48.188;11.566;2023-01-25T12:49:22;45.97;;;16.77;;
63201;SDS011;49296;48.188;11.566;2023-01-25T12:51:55;41.80;;;15.55;;
63201;SDS011;49296;48.188;11.566;2023-01-25T12:54:28;43.72;;;16.13;;
63201;SDS011;49296;48.188;11.566;2023-01-25T12:57:07;50.63;;;16.77;;
63201;SDS011;49296;48.188;11.566;2023-01-25T12:59:43;50.08;;;16.33;;
63201;SDS011;49296;48.188;11.566;2023-01-25T13:02:21;43.70;;;16.10;;
63201;SDS011;49296;48.188;11.566;2023-01-25T13:05:00;45.25;;;16.20;;
63201;SDS011;49296;48.188;11.566;2023-01-25T13:07:36;50.15;;;16.15;;
63201;SDS011;49296;48.188;11.566;2023-01-25T13:10:15;45.20;;;16.38;;
63201;SDS011;49296;48.188;11.566;2023-01-25T13:12:49;44.75;;;15.85;;
63201;SDS011;49296;48.188;11.566;2023-01-25T13:17:58;43.78;;;13.80;;
63201;SDS011;49296;48.188;11.566;2023-01-25T13:20:46;38.53;;;15.43;;
63201;SDS011;49296;48.188;11.566;2023-01-25T13:23:26;44.85;;;14.35;;
63201;SDS011;49296;48.188;11.566;2023-01-25T13:29:06;37.35;;;13.65;;
63201;SDS011;49296;48.188;11.566;2023-01-25T13:32:11;39.75;;;14.35;;
63201;SDS011;49296;48.188;11.566;2023-01-25T13:34:55;41.45;;;15.05;;
63201;SDS011;49296;48.188;11.566;2023-01-25T13:37:24;41.90;;;13.68;;
63201;SDS011;49296;48.188;11.566;2023-01-25T13:39:53;41.13;;;14.13;;
63201;SDS011;49296;48.188;11.566;2023-01-25T13:42:22;46.70;;;16.38;;
63201;SDS011;49296;48.188;11.566;2023-01-25T13:44:51;40.55;;;14.43;;
63201;SDS011;49296;48.188;11.566;2023-01-25T13:47:21;48.50;;;14.85;;
63201;SDS011;49296;48.188;11.566;2023-01-25T13:49:55;37.95;;;12.30;;
63201;SDS011;49296;48.188;11.566;2023-01-25T13:52:25;39.35;;;14.13;;
63201;SDS011;49296;48.188;11.566;2023-01-25T13:54:56;38.58;;;14.93;;
63201;SDS011;49296;48.188;11.566;2023-01-25T13:57:25;39.20;;;14.98;;
63201;SDS011;49296;48.188;11.566;2023-01-25T13:59:57;45.30;;;16.25;;
63201;SDS011;49296;48.188;11.566;2023-01-25T14:02:25;42.70;;;14.10;;
63201;SDS011;49296;48.188;11.566;2023-01-25T14:04:56;47.67;;;16.63;;
63201;SDS011;49296;48.188;11.566;2023-01-25T14:07:25;51.17;;;16.67;;
63201;SDS011;49296;48.188;11.566;2023-01-25T14:09:57;47.63;;;16.30;;
63201;SDS011;49296;48.188;11.566;2023-01-25T14:12:33;47.83;;;17.00;;
63201;SDS011;49296;48.188;11.566;2023-01-25T14:15:15;45.97;;;16.15;;
63201;SDS011;49296;48.188;11.566;2023-01-25T14:17:43;45.80;;;15.30;;
63201;SDS011;49296;48.188;11.566;2023-01-25T14:20:16;46.00;;;16.73;;
63201;SDS011;49296;48.188;11.566;2023-01-25T14:22:46;46.25;;;16.38;;
63201;SDS011;49296;48.188;11.566;2023-01-25T14:25:14;40.80;;;14.20;;
63201;SDS011;49296;48.188;11.566;2023-01-25T14:27:45;45.45;;;15.02;;
63201;SDS011;49296;48.188;11.566;2023-01-25T14:30:17;43.80;;;14.68;;
63201;SDS011;49296;48.188;11.566;2023-01-25T14:32:47;40.47;;;14.68;;
63201;SDS011;49296;48.188;11.566;2023-01-25T14:38:23;44.85;;;16.42;;
63201;SDS011;49296;48.188;11.566;2023-01-25T14:40:56;38.85;;;14.77;;
63201;SDS011;49296;48.188;11.566;2023-01-25T14:43:27;38.75;;;15.10;;
63201;SDS011;49296;48.188;11.566;2023-01-25T14:45:54;36.97;;;13.55;;
63201;SDS011;49296;48.188;11.566;2023-01-25T14:48:37;34.28;;;13.30;;